Time;durP1;ratioP1;P1;durP2;ratioP2;P2;SDS_P1;SDS_P2;PMS_P1;PMS_P2;Temp;Humidity;BMP_temperature;BMP_pressure;BME280_temperature;BME280_humidity;BME280_pressure;Samples;Min_cycle;Max_cycle;Signal;HPM_P1;HPM_P2
2022/08/19 00:00:29;;;;;;;2.13;1.92;;;23.10;1.00;;;;;;5112417;28;20426;-59
2022/08/19 00:02:54;;;;;;;3.75;2.17;;;23.30;1.00;;;;;;5106683;28;20060;-59
2022/08/19 00:05:32;;;;;;;3.67;1.70;;;23.30;1.00;;;;;;5110846;28;20174;-59
2022/08/19 00:07:58;;;;;;;4.15;2.20;;;23.30;1.00;;;;;;5111748;28;20035;-59
2022/08/19 00:10:24;;;;;;;3.90;1.73;;;23.30;1.00;;;;;;5099782;28;20472;-59
2022/08/19 00:12:51;;;;;;;2.40;1.80;;;23.30;1.00;;;;;;5109868;28;20019;-59
2022/08/19 00:15:20;;;;;;;4.95;1.98;;;23.40;1.00;;;;;;5112351;28;20461;-59
2022/08/19 00:17:46;;;;;;;4.30;1.60;;;23.40;1.00;;;;;;5111518;28;20023;-59
2022/08/19 00:20:16;;;;;;;2.17;1.77;;;23.40;1.00;;;;;;5112521;28;20024;-60
2022/08/19 00:22:44;;;;;;;2.25;1.67;;;23.30;1.00;;;;;;5097912;28;20481;-59
2022/08/19 00:25:10;;;;;;;3.90;2.22;;;23.30;1.00;;;;;;5111740;28;20043;-59
2022/08/19 00:27:35;;;;;;;3.95;2.20;;;23.40;1.00;;;;;;5093077;28;20438;-59
2022/08/19 00:30:03;;;;;;;3.97;1.77;;;23.40;1.00;;;;;;5112282;28;20028;-59
2022/08/19 00:32:29;;;;;;;3.15;2.05;;;23.40;1.00;;;;;;5111282;28;20103;-58
2022/08/19 00:34:55;;;;;;;3.45;1.98;;;23.40;1.00;;;;;;5111279;28;20058;-59
2022/08/19 00:37:22;;;;;;;2.88;2.03;;;23.40;1.00;;;;;;5111962;28;20059;-59
2022/08/19 00:39:52;;;;;;;4.90;2.25;;;23.50;1.00;;;;;;5099321;28;20019;-59
2022/08/19 00:42:19;;;;;;;3.53;2.08;;;23.40;1.00;;;;;;5093757;28;20027;-59
2022/08/19 00:44:45;;;;;;;3.67;1.92;;;23.50;1.00;;;;;;5111085;28;20067;-59
2022/08/19 00:47:11;;;;;;;4.15;1.90;;;23.50;1.00;;;;;;5112064;28;20035;-59
2022/08/19 00:49:50;;;;;;;5.50;2.33;;;23.50;1.00;;;;;;5110817;28;20519;-59
2022/08/19 00:52:22;;;;;;;8.77;2.40;;;23.50;1.00;;;;;;5112048;28;20035;-59
2022/08/19 00:54:48;;;;;;;3.80;2.30;;;23.50;1.00;;;;;;5097287;28;20049;-59
2022/08/19 00:57:18;;;;;;;5.82;2.47;;;23.50;1.00;;;;;;5110064;28;20035;-59
2022/08/19 00:59:48;;;;;;;3.78;1.95;;;23.40;1.00;;;;;;5104274;28;20081;-59
2022/08/19 01:02:16;;;;;;;3.88;1.80;;;23.40;1.00;;;;;;5112014;28;20028;-58
2022/08/19 01:04:42;;;;;;;5.40;2.35;;;23.40;1.00;;;;;;5111041;28;20020;-58
2022/08/19 01:07:07;;;;;;;2.42;1.70;;;23.50;1.00;;;;;;5112030;28;20031;-59
2022/08/19 01:09:33;;;;;;;2.67;1.80;;;23.40;1.00;;;;;;5106753;28;20031;-59
2022/08/19 01:11:59;;;;;;;2.60;1.70;;;23.40;1.00;;;;;;5110138;28;20495;-59
2022/08/19 01:14:25;;;;;;;2.00;1.83;;;23.40;1.00;;;;;;5111002;28;20032;-59
2022/08/19 01:16:54;;;;;;;5.38;2.30;;;23.40;1.00;;;;;;5111755;28;20020;-59
2022/08/19 01:19:32;;;;;;;4.35;2.20;;;23.30;1.00;;;;;;5107937;28;20050;-59
2022/08/19 01:22:03;;;;;;;3.80;2.33;;;23.30;1.00;;;;;;5108773;28;20495;-59
2022/08/19 01:24:30;;;;;;;2.08;1.50;;;23.30;1.00;;;;;;5110902;28;20053;-59
2022/08/19 01:26:56;;;;;;;3.03;1.80;;;23.30;1.00;;;;;;5110811;28;20099;-59
2022/08/19 01:29:22;;;;;;;4.07;2.22;;;23.30;1.00;;;;;;5109857;28;20031;-59
2022/08/19 01:31:48;;;;;;;2.55;2.03;;;23.30;1.00;;;;;;5111117;28;20069;-59
2022/08/19 01:34:14;;;;;;;3.13;1.63;;;23.30;1.00;;;;;;5110084;28;20113;-59
2022/08/19 01:36:46;;;;;;;3.90;1.98;;;23.30;1.00;;;;;;5111142;28;20042;-59
2022/08/19 01:39:19;;;;;;;2.55;1.63;;;23.30;1.00;;;;;;5110071;28;20085;-59
2022/08/19 01:41:44;;;;;;;3.40;2.13;;;23.30;1.00;;;;;;5110956;28;20023;-59
2022/08/19 01:44:11;;;;;;;2.55;2.00;;;23.30;1.00;;;;;;5109711;28;20040;-59
2022/08/19 01:46:37;;;;;;;4.90;2.20;;;23.30;1.00;;;;;;5113779;28;20039;-59
2022/08/19 01:49:05;;;;;;;2.25;1.90;;;23.30;1.00;;;;;;5111266;28;20027;-58
2022/08/19 01:51:31;;;;;;;4.07;2.22;;;23.10;1.00;;;;;;5114422;28;20479;-59
2022/08/19 01:53:57;;;;;;;2.10;1.90;;;23.20;1.00;;;;;;5095737;28;20381;-59
2022/08/19 01:56:24;;;;;;;2.97;2.13;;;23.20;1.00;;;;;;5114356;28;20187;-59
2022/08/19 01:58:59;;;;;;;3.55;2.13;;;23.30;1.00;;;;;;5113752;28;20020;-59
2022/08/19 02:01:25;;;;;;;3.85;1.95;;;23.30;1.00;;;;;;5114248;28;20019;-59
2022/08/19 02:03:53;;;;;;;4.32;1.85;;;23.30;1.00;;;;;;5112757;28;20031;-59
2022/08/19 02:06:18;;;;;;;2.65;2.28;;;23.30;1.00;;;;;;5112799;28;20043;-59
2022/08/19 02:08:45;;;;;;;3.33;1.83;;;23.40;1.00;;;;;;5113502;28;20059;-59
2022/08/19 02:11:19;;;;;;;3.45;1.98;;;23.30;1.00;;;;;;5113938;28;20036;-59
2022/08/19 02:13:45;;;;;;;2.80;2.08;;;23.30;1.00;;;;;;5112705;28;20022;-59
2022/08/19 02:16:13;;;;;;;3.85;2.28;;;23.30;1.00;;;;;;5095548;28;20389;-59
2022/08/19 02:18:39;;;;;;;3.78;2.38;;;23.30;1.00;;;;;;5113793;28;20102;-59
2022/08/19 02:21:05;;;;;;;3.83;2.22;;;23.30;1.00;;;;;;5114337;28;20055;-59
2022/08/19 02:23:31;;;;;;;3.72;2.17;;;23.30;1.00;;;;;;5113857;28;20019;-58
2022/08/19 02:25:57;;;;;;;2.78;1.70;;;23.30;1.00;;;;;;5113710;28;20024;-60
2022/08/19 02:28:22;;;;;;;3.05;2.25;;;23.30;1.00;;;;;;5114387;28;20472;-59
2022/08/19 02:30:48;;;;;;;3.53;2.00;;;23.20;1.00;;;;;;5113593;28;20023;-59
2022/08/19 02:33:14;;;;;;;5.82;2.25;;;23.20;1.00;;;;;;5114400;28;20383;-59
2022/08/19 02:35:45;;;;;;;2.88;1.83;;;23.10;1.00;;;;;;5113728;28;20038;-59
2022/08/19 02:38:26;;;;;;;7.85;2.00;;;23.10;1.00;;;;;;5114259;28;20441;-59
2022/08/19 02:41:04;;;;;;;3.17;1.95;;;23.10;1.00;;;;;;5111865;28;20016;-58
2022/08/19 02:43:31;;;;;;;3.47;1.95;;;23.10;1.00;;;;;;5114213;28;20133;-58
2022/08/19 02:45:57;;;;;;;3.80;2.00;;;23.10;1.00;;;;;;5112918;28;20145;-58
2022/08/19 02:48:25;;;;;;;2.22;1.65;;;23.10;1.00;;;;;;5114072;28;20031;-59
2022/08/19 02:50:54;;;;;;;7.43;2.35;;;23.00;1.00;;;;;;5112814;28;20489;-59
2022/08/19 02:53:21;;;;;;;3.70;2.03;;;23.00;1.00;;;;;;5112971;28;20020;-58
2022/08/19 02:55:48;;;;;;;2.05;1.88;;;23.10;1.00;;;;;;5080570;28;20386;-59
2022/08/19 02:58:14;;;;;;;2.50;2.05;;;23.00;1.00;;;;;;5113204;28;20113;-59
2022/08/19 03:00:45;;;;;;;3.40;1.90;;;22.90;1.00;;;;;;5097746;28;20528;-59
2022/08/19 03:03:12;;;;;;;3.83;2.03;;;23.00;1.00;;;;;;5100872;28;20097;-58
2022/08/19 03:05:37;;;;;;;4.80;2.00;;;22.90;1.00;;;;;;5111905;28;20019;-58
2022/08/19 03:08:03;;;;;;;3.17;1.98;;;22.90;1.00;;;;;;5104708;28;20039;-60
2022/08/19 03:10:29;;;;;;;3.13;1.88;;;23.00;1.00;;;;;;5100361;28;20138;-59
2022/08/19 03:12:55;;;;;;;2.50;1.88;;;23.00;1.00;;;;;;5093152;28;20107;-59
2022/08/19 03:15:20;;;;;;;3.08;2.08;;;23.00;1.00;;;;;;5100233;28;20020;-59
2022/08/19 03:17:46;;;;;;;3.97;2.10;;;23.00;1.00;;;;;;5104260;28;20063;-59
2022/08/19 03:20:11;;;;;;;6.68;2.10;;;23.10;1.00;;;;;;5110518;28;20035;-59
2022/08/19 03:22:37;;;;;;;1.95;1.60;;;23.00;1.00;;;;;;5112525;28;20418;-60
2022/08/19 03:25:03;;;;;;;2.97;2.05;;;23.00;1.00;;;;;;5113341;28;20024;-60
2022/08/19 03:27:29;;;;;;;2.50;1.85;;;23.00;1.00;;;;;;5112339;28;20016;-60
2022/08/19 03:29:55;;;;;;;4.70;2.05;;;23.10;1.00;;;;;;5113170;28;20477;-60
2022/08/19 03:32:21;;;;;;;3.13;2.22;;;23.10;1.00;;;;;;5112460;28;20035;-60
2022/08/19 03:34:47;;;;;;;3.55;2.17;;;22.90;1.00;;;;;;5112960;28;20410;-60
2022/08/19 03:37:13;;;;;;;5.28;2.15;;;22.90;1.00;;;;;;5112128;28;20034;-60
2022/08/19 03:39:41;;;;;;;3.03;2.08;;;23.00;1.00;;;;;;5112135;28;20035;-60
2022/08/19 03:42:08;;;;;;;2.80;1.90;;;23.00;1.00;;;;;;5112326;28;20035;-59
2022/08/19 03:44:33;;;;;;;3.60;2.00;;;23.00;1.00;;;;;;5112758;28;20047;-60
2022/08/19 03:47:00;;;;;;;4.65;2.22;;;23.00;1.00;;;;;;5112240;28;20038;-59
2022/08/19 03:49:28;;;;;;;2.53;1.83;;;23.00;1.00;;;;;;5112781;28;20016;-60
2022/08/19 03:51:55;;;;;;;2.42;2.00;;;23.00;1.00;;;;;;5111739;28;20063;-59
2022/08/19 03:54:23;;;;;;;4.57;2.03;;;23.00;1.00;;;;;;5112657;28;20108;-60
2022/08/19 03:56:51;;;;;;;4.10;2.17;;;22.90;1.00;;;;;;5111845;28;20037;-59
2022/08/19 03:59:25;;;;;;;3.05;1.80;;;22.90;1.00;;;;;;5112908;28;20023;-59
2022/08/19 04:01:55;;;;;;;2.70;1.75;;;22.90;1.00;;;;;;5097777;28;20032;-59
2022/08/19 04:04:21;;;;;;;2.88;2.38;;;23.00;1.00;;;;;;5112316;28;20077;-59
2022/08/19 04:06:47;;;;;;;6.22;2.50;;;22.90;1.00;;;;;;5110647;28;20028;-59
2022/08/19 04:09:13;;;;;;;4.95;1.92;;;22.90;1.00;;;;;;5108902;28;20031;-59
2022/08/19 04:11:42;;;;;;;4.38;2.22;;;23.00;1.00;;;;;;5112388;28;20073;-59
2022/08/19 04:14:11;;;;;;;3.05;1.90;;;22.90;1.00;;;;;;5111688;28;20046;-59
2022/08/19 04:16:37;;;;;;;2.35;2.15;;;22.90;1.00;;;;;;5111685;28;20024;-59
2022/08/19 04:19:04;;;;;;;4.28;2.50;;;23.00;1.00;;;;;;5111488;28;20039;-59
2022/08/19 04:21:30;;;;;;;2.28;1.70;;;22.90;1.00;;;;;;5112510;28;20019;-59
2022/08/19 04:23:56;;;;;;;4.85;2.45;;;22.90;1.00;;;;;;5111162;28;20031;-59
2022/08/19 04:26:31;;;;;;;3.10;1.98;;;22.40;1.00;;;;;;5093931;28;20110;-59
2022/08/19 04:28:58;;;;;;;2.95;2.17;;;22.10;2.60;;;;;;5092990;28;20023;-59
2022/08/19 04:31:27;;;;;;;2.72;2.13;;;22.00;1.00;;;;;;5112579;28;20047;-60
2022/08/19 04:33:57;;;;;;;2.85;1.77;;;22.00;1.00;;;;;;5111746;28;20027;-60
2022/08/19 04:36:27;;;;;;;3.03;1.90;;;22.10;1.00;;;;;;5112020;28;20485;-60
2022/08/19 04:38:58;;;;;;;3.40;1.80;;;22.20;1.00;;;;;;5092697;28;20028;-60
2022/08/19 04:44:08;;;;;;;1.77;1.60;;;22.50;1.00;;;;;;5107548;28;20065;-60
2022/08/19 04:46:34;;;;;;;1.90;1.75;;;22.60;1.00;;;;;;5112349;28;20488;-59
2022/08/19 04:49:04;;;;;;;8.23;1.70;;;22.60;1.00;;;;;;5111265;28;20016;-59
2022/08/19 04:51:31;;;;;;;2.63;2.13;;;22.60;1.00;;;;;;5111188;28;20043;-59
2022/08/19 04:53:57;;;;;;;3.45;2.22;;;22.40;1.00;;;;;;5111331;28;20519;-54
2022/08/19 04:56:25;;;;;;;3.58;2.15;;;22.10;1.00;;;;;;5111927;28;20023;-54
2022/08/19 04:59:20;;;;;;;3.33;2.08;;;22.00;1.00;;;;;;5111254;28;20066;-53
2022/08/19 05:01:49;;;;;;;3.47;2.55;;;22.00;5.80;;;;;;5111881;28;20055;-53
2022/08/19 05:04:17;;;;;;;3.70;2.40;;;21.90;1.00;;;;;;5111202;28;20042;-54
2022/08/19 05:10:05;;;;;;;5.20;2.63;;;22.00;3.40;;;;;;5107926;28;20039;-57
2022/08/19 05:12:31;;;;;;;4.22;2.42;;;22.10;1.00;;;;;;5112007;28;20172;-54
2022/08/19 05:14:58;;;;;;;7.38;2.78;;;22.00;1.00;;;;;;5111653;28;20061;-52
2022/08/19 05:17:26;;;;;;;3.25;2.65;;;21.90;1.00;;;;;;5092376;28;20036;-57
2022/08/19 05:22:36;;;;;;;4.40;2.60;;;22.00;1.00;;;;;;5115265;28;20042;-57
2022/08/19 05:25:08;;;;;;;4.30;2.95;;;22.00;1.00;;;;;;5115676;28;20012;-57
2022/08/19 05:27:35;;;;;;;4.20;3.15;;;22.10;1.00;;;;;;5114809;28;20031;-55
2022/08/19 05:30:01;;;;;;;6.65;3.00;;;22.00;1.00;;;;;;5115590;28;20034;-56
2022/08/19 05:32:27;;;;;;;6.30;3.35;;;22.20;1.00;;;;;;5114683;28;20028;-56
2022/08/19 05:34:53;;;;;;;4.72;3.35;;;22.10;1.00;;;;;;5115436;28;20077;-58
2022/08/19 05:37:19;;;;;;;5.15;3.58;;;22.20;1.00;;;;;;5112881;28;20063;-57
2022/08/19 05:40:09;;;;;;;4.20;3.00;;;22.20;1.00;;;;;;5104347;28;20069;-57
2022/08/19 05:42:35;;;;;;;7.07;4.15;;;22.20;1.00;;;;;;5110163;28;20012;-58
2022/08/19 05:45:01;;;;;;;5.43;4.20;;;22.20;1.00;;;;;;5113885;28;20054;-59
2022/08/19 05:47:27;;;;;;;6.43;3.80;;;22.20;1.00;;;;;;5115288;28;20019;-59
2022/08/19 05:49:52;;;;;;;4.60;4.07;;;22.30;1.00;;;;;;5114292;28;20106;-59
2022/08/19 05:52:19;;;;;;;6.40;3.45;;;22.30;1.00;;;;;;5115675;28;20135;-58
2022/08/19 05:54:47;;;;;;;3.15;2.85;;;22.30;1.00;;;;;;5114239;28;20172;-58
2022/08/19 05:57:14;;;;;;;5.07;3.17;;;22.40;1.00;;;;;;5114626;28;20026;-58
2022/08/19 05:59:51;;;;;;;3.90;2.75;;;22.40;1.00;;;;;;5115063;28;20385;-58
2022/08/19 06:02:16;;;;;;;5.00;3.33;;;22.40;1.00;;;;;;5113925;28;20027;-57
2022/08/19 06:04:42;;;;;;;4.07;3.03;;;22.40;1.00;;;;;;5115257;28;20028;-59
2022/08/19 06:07:08;;;;;;;4.60;3.50;;;22.40;1.00;;;;;;5113882;28;20027;-59
2022/08/19 06:09:35;;;;;;;3.95;2.55;;;22.40;1.00;;;;;;5096502;28;20027;-58
2022/08/19 06:12:01;;;;;;;2.60;2.40;;;22.40;1.00;;;;;;5112632;28;20051;-56
2022/08/19 06:14:31;;;;;;;5.63;2.38;;;22.40;1.00;;;;;;5115004;28;20384;-58
2022/08/19 06:16:57;;;;;;;3.05;2.53;;;22.40;1.00;;;;;;5114086;28;20043;-59
2022/08/19 06:19:26;;;;;;;5.95;2.63;;;22.40;1.00;;;;;;5114351;28;20524;-59
2022/08/19 06:21:52;;;;;;;5.75;2.35;;;22.40;1.00;;;;;;5104583;28;20082;-58
2022/08/19 06:24:23;;;;;;;8.18;2.83;;;22.30;5.70;;;;;;5112853;28;20500;-57
2022/08/19 06:26:50;;;;;;;4.60;2.70;;;22.10;81.70;;;;;;5113986;28;20035;-56
2022/08/19 06:29:17;;;;;;;6.25;3.17;;;22.00;99.90;;;;;;5114490;28;20019;-55
2022/08/19 06:32:00;;;;;;;11.95;4.47;;;21.90;99.90;;;;;;5112419;28;20106;-49
2022/08/19 06:34:28;;;;;;;15.20;4.68;;;21.60;99.90;;;;;;5113660;28;20019;-55
2022/08/19 06:36:55;;;;;;;10.57;4.35;;;21.50;99.90;;;;;;5082168;28;20070;-55
2022/08/19 06:39:25;;;;;;;10.82;6.32;;;21.30;99.90;;;;;;5100882;28;20019;-54
2022/08/19 06:41:55;;;;;;;6.75;4.78;;;21.80;99.90;;;;;;5105162;28;20038;-56
2022/08/19 06:44:22;;;;;;;6.07;3.90;;;21.70;99.90;;;;;;5099559;28;20040;-54
2022/08/19 06:47:05;;;;;;;6.85;3.03;;;21.30;99.90;;;;;;5111806;28;20479;-51
2022/08/19 06:49:30;;;;;;;7.10;3.88;;;21.30;99.90;;;;;;5113872;28;20046;-52
2022/08/19 06:51:57;;;;;;;5.93;3.92;;;21.30;99.90;;;;;;5113004;28;20032;-54
2022/08/19 06:54:23;;;;;;;5.30;2.92;;;21.60;99.90;;;;;;5113952;28;20034;-51
2022/08/19 06:56:48;;;;;;;4.70;2.90;;;21.20;99.90;;;;;;5113040;28;20489;-51
2022/08/19 06:59:18;;;;;;;5.32;3.08;;;21.30;99.90;;;;;;5105914;28;20030;-50
2022/08/19 07:01:54;;;;;;;5.45;2.75;;;21.20;99.90;;;;;;5112734;28;20031;-50
2022/08/19 07:04:24;;;;;;;7.93;3.10;;;21.10;99.90;;;;;;5113944;28;20015;-53
2022/08/19 07:06:55;;;;;;;4.47;3.30;;;21.50;99.90;;;;;;5106683;28;20478;-56
2022/08/19 07:09:21;;;;;;;5.20;4.22;;;21.60;99.90;;;;;;5112028;28;20011;-56
2022/08/19 07:11:49;;;;;;;6.10;2.92;;;21.70;99.90;;;;;;5112574;28;20078;-56
2022/08/19 07:14:17;;;;;;;3.45;2.75;;;21.70;99.90;;;;;;5112547;28;20027;-54
2022/08/19 07:16:45;;;;;;;5.93;3.50;;;21.80;99.90;;;;;;5094845;28;20034;-55
2022/08/19 07:19:12;;;;;;;3.85;2.67;;;21.90;99.90;;;;;;5089189;28;20452;-56
2022/08/19 07:25:51;;;;;;;4.38;2.80;;;21.90;99.90;;;;;;5109349;28;20148;-54
2022/08/19 07:28:18;;;;;;;5.82;3.28;;;21.90;99.90;;;;;;5112408;28;20487;-56
2022/08/19 07:30:43;;;;;;;6.90;4.10;;;21.90;99.90;;;;;;5113197;28;20023;-54
2022/08/19 07:33:09;;;;;;;6.45;3.92;;;21.60;99.90;;;;;;5112458;28;20032;-56
2022/08/19 07:35:35;;;;;;;5.80;4.53;;;21.80;99.90;;;;;;5113217;28;20575;-54
2022/08/19 07:38:02;;;;;;;5.43;4.75;;;22.00;99.90;;;;;;5111842;28;20155;-56
2022/08/19 07:40:28;;;;;;;4.60;3.72;;;21.70;99.90;;;;;;5113048;28;20469;-55
2022/08/19 07:42:54;;;;;;;5.68;4.13;;;21.90;99.90;;;;;;5111810;28;20448;-56
2022/08/19 07:45:20;;;;;;;5.70;4.78;;;21.80;99.90;;;;;;5112731;28;20126;-56
2022/08/19 07:47:46;;;;;;;6.30;4.63;;;22.00;99.90;;;;;;5112472;28;20065;-56
2022/08/19 07:50:11;;;;;;;10.10;8.00;;;21.90;99.90;;;;;;5112382;28;20023;-57
2022/08/19 07:52:39;;;;;;;7.32;4.88;;;21.90;99.90;;;;;;5112148;28;20488;-57
2022/08/19 07:55:07;;;;;;;9.32;5.97;;;21.90;99.90;;;;;;5094181;28;20118;-59
2022/08/19 07:57:33;;;;;;;7.53;5.13;;;21.80;99.90;;;;;;5108698;28;20033;-56
2022/08/19 07:59:59;;;;;;;8.40;4.63;;;21.90;99.90;;;;;;5107345;28;20106;-59
2022/08/19 08:02:24;;;;;;;6.20;4.00;;;22.10;99.90;;;;;;5111534;28;20487;-58
2022/08/19 08:10:18;;;;;;;6.13;3.38;;;22.10;99.90;;;;;;5112787;28;20438;-59
2022/08/19 08:12:44;;;;;;;3.85;3.28;;;22.10;99.90;;;;;;5093886;28;20032;-58
2022/08/19 08:15:18;;;;;;;4.40;3.58;;;22.20;99.90;;;;;;5111770;28;20034;-58
2022/08/19 08:17:44;;;;;;;;;;;22.10;99.90;;;;;;5112085;28;20058;-58
2022/08/19 08:20:10;;;;;;;6.63;3.60;;;22.10;99.90;;;;;;5099704;28;19955;-58
2022/08/19 08:25:22;;;;;;;3.75;3.25;;;22.00;99.90;;;;;;5111628;28;20159;-58
2022/08/19 08:27:50;;;;;;;2.92;2.40;;;22.30;99.90;;;;;;5111341;28;20027;-58
2022/08/19 08:30:25;;;;;;;6.72;2.63;;;22.30;99.90;;;;;;5112325;28;20103;-58
2022/08/19 08:32:51;;;;;;;4.13;1.92;;;22.20;99.90;;;;;;5111602;28;20059;-56
2022/08/19 08:35:20;;;;;;;3.80;2.40;;;22.30;99.90;;;;;;5111507;28;20028;-57
2022/08/19 08:37:49;;;;;;;4.72;2.53;;;22.20;99.90;;;;;;5111177;28;20191;-58
2022/08/19 08:40:50;;;;;;;3.42;2.25;;;22.30;99.90;;;;;;5094162;28;20388;-58
2022/08/19 08:43:35;;;;;;;4.60;2.55;;;22.10;99.90;;;;;;5038978;28;20037;-58
2022/08/19 08:46:05;;;;;;;;;;;22.30;99.90;;;;;;5109658;28;20059;-58
2022/08/19 08:48:34;;;;;;;2.38;2.17;;;22.40;99.90;;;;;;5110837;28;19990;-58
2022/08/19 08:51:05;;;;;;;3.50;2.30;;;22.50;99.90;;;;;;5111878;28;20039;-59
2022/08/19 08:53:31;;;;;;;6.13;2.40;;;22.60;99.90;;;;;;5109101;28;20042;-59
2022/08/19 08:56:00;;;;;;;3.85;2.05;;;22.60;99.90;;;;;;5102567;28;20020;-58
2022/08/19 08:58:45;;;;;;;4.72;2.50;;;22.60;99.90;;;;;;5097055;28;20335;-59
2022/08/19 09:01:12;;;;;;;4.70;2.70;;;22.40;99.90;;;;;;5116382;28;20110;-59
2022/08/19 09:03:41;;;;;;;3.53;2.30;;;22.70;99.90;;;;;;5115206;28;20140;-59
2022/08/19 09:06:11;;;;;;;4.22;2.40;;;22.80;99.90;;;;;;5097771;28;20019;-58
2022/08/19 09:09:03;;;;;;;3.88;2.20;;;22.70;99.90;;;;;;5115199;28;20020;-58
2022/08/19 09:11:47;;;;;;;3.65;2.30;;;22.80;99.90;;;;;;5114732;28;20039;-58
2022/08/19 09:14:33;;;;;;;3.47;2.08;;;22.70;99.90;;;;;;5115699;28;20427;-58
2022/08/19 09:17:03;;;;;;;4.22;2.90;;;22.90;99.90;;;;;;5114977;28;20024;-58
2022/08/19 09:19:30;;;;;;;3.90;2.33;;;22.70;99.90;;;;;;5115378;28;20031;-58
2022/08/19 09:21:56;;;;;;;4.93;2.30;;;22.60;99.90;;;;;;5114822;28;20031;-58
2022/08/19 09:24:24;;;;;;;3.50;2.65;;;22.70;99.90;;;;;;5115691;28;20030;-58
2022/08/19 09:26:50;;;;;;;2.83;2.35;;;22.80;99.90;;;;;;5115435;28;20020;-58
2022/08/19 09:29:15;;;;;;;3.90;3.00;;;22.90;99.90;;;;;;5115043;28;20034;-58
2022/08/19 09:31:41;;;;;;;4.50;2.38;;;23.20;99.90;;;;;;5115644;28;20031;-58
2022/08/19 09:34:08;;;;;;;4.45;2.83;;;23.10;99.90;;;;;;5114194;28;20498;-58
2022/08/19 09:36:35;;;;;;;3.03;2.63;;;23.30;99.90;;;;;;5115497;28;20051;-58
2022/08/19 09:39:05;;;;;;;3.97;2.47;;;23.30;99.90;;;;;;5114752;28;20031;-58
2022/08/19 09:41:31;;;;;;;3.03;2.05;;;23.30;99.90;;;;;;5115378;28;20042;-58
2022/08/19 09:43:59;;;;;;;4.45;2.60;;;23.40;99.90;;;;;;5114208;28;20105;-58
2022/08/19 09:46:27;;;;;;;2.22;1.85;;;23.50;14.10;;;;;;5115246;28;20477;-58
2022/08/19 09:48:53;;;;;;;2.38;1.70;;;23.70;8.00;;;;;;5114293;28;20058;-58
2022/08/19 09:51:22;;;;;;;3.47;2.65;;;23.80;5.60;;;;;;5115192;28;20031;-58
2022/08/19 09:53:53;;;;;;;3.25;2.10;;;24.00;1.80;;;;;;5114401;28;20034;-58
2022/08/19 09:56:21;;;;;;;2.67;1.85;;;24.00;1.00;;;;;;5115233;28;20031;-58
2022/08/19 09:58:47;;;;;;;3.38;1.95;;;24.00;1.00;;;;;;5113478;28;20047;-59
2022/08/19 10:01:22;;;;;;;1.92;1.60;;;24.10;1.00;;;;;;5115355;28;20032;-59
2022/08/19 10:03:51;;;;;;;3.80;1.98;;;24.10;1.00;;;;;;5089826;28;20184;-59
2022/08/19 10:06:17;;;;;;;2.90;2.08;;;24.20;1.00;;;;;;5093486;28;20031;-59
2022/08/19 10:08:44;;;;;;;4.68;2.38;;;24.30;1.00;;;;;;5107421;28;20031;-59
2022/08/19 10:11:10;;;;;;;2.38;1.92;;;24.30;1.00;;;;;;5114848;28;20069;-59
2022/08/19 10:13:36;;;;;;;2.38;1.98;;;24.40;1.00;;;;;;5113964;28;20034;-59
2022/08/19 10:16:10;;;;;;;3.38;1.98;;;24.60;1.00;;;;;;5114582;28;20020;-59
2022/08/19 10:18:37;;;;;;;1.80;1.17;;;24.70;1.00;;;;;;5114096;28;20111;-59
2022/08/19 10:21:24;;;;;;;5.18;1.58;;;24.70;1.00;;;;;;5114654;28;20054;-59
2022/08/19 10:23:52;;;;;;;1.27;1.17;;;24.80;1.00;;;;;;5113236;28;20068;-59
2022/08/19 10:26:21;;;;;;;2.13;1.60;;;25.00;1.00;;;;;;5106342;28;20028;-59
2022/08/19 10:28:48;;;;;;;3.47;1.58;;;25.20;1.00;;;;;;5113777;28;20355;-59
2022/08/19 10:31:20;;;;;;;4.53;1.23;;;25.20;1.00;;;;;;5114519;28;20031;-59
2022/08/19 10:33:47;;;;;;;3.28;1.25;;;25.40;1.00;;;;;;5113737;28;20019;-59
2022/08/19 10:36:19;;;;;;;2.38;1.17;;;25.40;1.00;;;;;;5114510;28;20027;-59
2022/08/19 10:38:50;;;;;;;2.83;1.38;;;25.50;1.00;;;;;;5113630;28;20082;-59
2022/08/19 10:41:19;;;;;;;3.65;1.27;;;25.60;1.00;;;;;;5114563;28;20055;-59
2022/08/19 10:43:45;;;;;;;2.70;1.17;;;25.60;1.00;;;;;;5113262;28;20085;-58
2022/08/19 10:46:13;;;;;;;1.00;1.00;;;25.80;1.00;;;;;;5113647;28;20046;-59
2022/08/19 10:48:43;;;;;;;2.22;1.00;;;25.90;1.00;;;;;;5113440;28;20063;-59
2022/08/19 10:54:04;;;;;;;1.77;1.10;;;26.10;1.00;;;;;;5113247;28;20031;-59
2022/08/19 10:59:22;;;;;;;1.35;1.17;;;26.30;1.00;;;;;;5111755;28;20050;-59
2022/08/19 11:01:50;;;;;;;1.45;0.95;;;26.40;1.00;;;;;;5103598;28;20487;-59
2022/08/19 11:04:19;;;;;;;1.20;1.10;;;26.40;1.00;;;;;;5113121;28;20055;-59
2022/08/19 11:06:50;;;;;;;3.65;1.48;;;26.40;1.00;;;;;;5113862;28;20032;-59
2022/08/19 11:09:19;;;;;;;2.15;1.25;;;26.50;1.00;;;;;;5098527;28;20370;-59
2022/08/19 11:11:47;;;;;;;1.67;1.15;;;26.50;1.00;;;;;;5111728;28;20035;-59
2022/08/19 11:14:15;;;;;;;3.72;1.35;;;26.50;1.00;;;;;;5112127;28;20027;-59
2022/08/19 11:16:42;;;;;;;3.40;1.20;;;26.70;1.00;;;;;;5113645;28;20028;-59
2022/08/19 11:19:08;;;;;;;1.55;1.17;;;26.90;1.00;;;;;;5110357;28;20035;-59
2022/08/19 11:21:40;;;;;;;1.77;1.40;;;27.00;1.00;;;;;;5113434;28;20023;-59
2022/08/19 11:24:11;;;;;;;2.53;1.42;;;27.10;1.00;;;;;;5112897;28;20024;-59
2022/08/19 11:26:38;;;;;;;2.83;1.08;;;27.20;1.00;;;;;;5113683;28;20488;-59
2022/08/19 11:29:05;;;;;;;2.88;1.27;;;27.20;1.00;;;;;;5112710;28;20074;-60
2022/08/19 11:31:33;;;;;;;1.20;1.10;;;27.10;1.00;;;;;;5094906;28;20088;-60
2022/08/19 11:34:02;;;;;;;1.42;1.10;;;27.10;1.00;;;;;;5094642;28;20495;-60
2022/08/19 11:36:29;;;;;;;3.00;2.78;;;27.10;1.00;;;;;;5112509;28;20453;-60
2022/08/19 11:38:55;;;;;;;1.58;1.30;;;27.20;1.00;;;;;;5112212;28;20034;-60
2022/08/19 11:41:23;;;;;;;3.17;1.35;;;27.20;1.00;;;;;;5113263;28;20107;-60
2022/08/19 11:43:50;;;;;;;3.25;1.50;;;27.20;1.00;;;;;;5112152;28;20081;-59
2022/08/19 11:46:16;;;;;;;3.50;1.73;;;27.50;1.00;;;;;;5113297;28;20036;-59
2022/08/19 11:48:43;;;;;;;1.83;1.60;;;27.50;1.00;;;;;;5112206;28;20373;-59
2022/08/19 11:51:12;;;;;;;1.75;1.10;;;27.40;1.00;;;;;;5094789;28;20031;-59
2022/08/19 11:53:38;;;;;;;2.35;1.55;;;27.40;1.00;;;;;;5112073;28;20269;-60
2022/08/19 11:56:05;;;;;;;2.22;1.13;;;27.50;1.00;;;;;;5113336;28;20023;-59
2022/08/19 11:58:31;;;;;;;4.10;1.58;;;27.60;1.00;;;;;;5112005;28;20481;-59
2022/08/19 12:00:57;;;;;;;3.88;1.70;;;27.80;1.00;;;;;;5112178;28;20333;-59
2022/08/19 12:03:23;;;;;;;1.52;1.40;;;28.30;1.00;;;;;;5107221;28;20020;-59
2022/08/19 12:05:49;;;;;;;2.08;1.15;;;28.80;1.00;;;;;;5112648;28;20385;-60
2022/08/19 12:11:50;;;;;;;1.65;1.42;;;28.80;1.00;;;;;;5110485;28;20543;-60
2022/08/19 12:14:16;;;;;;;2.88;1.48;;;29.30;1.00;;;;;;5111416;28;20022;-59
2022/08/19 12:16:46;;;;;;;3.40;1.73;;;29.20;1.00;;;;;;5112501;28;20032;-59
2022/08/19 12:19:11;;;;;;;3.25;1.48;;;30.90;1.00;;;;;;5111499;28;20023;-60
2022/08/19 12:21:37;;;;;;;1.70;1.30;;;31.60;1.00;;;;;;5112302;28;20024;-60
2022/08/19 12:24:05;;;;;;;3.67;1.40;;;32.20;1.00;;;;;;5111751;28;20046;-60
2022/08/19 12:26:31;;;;;;;2.10;1.73;;;32.70;1.00;;;;;;5112245;28;20024;-59
2022/08/19 12:28:59;;;;;;;2.40;2.20;;;33.20;1.00;;;;;;5111725;28;20776;-59
2022/08/19 12:31:25;;;;;;;2.65;2.03;;;33.00;1.00;;;;;;5111534;28;20162;-59
2022/08/19 12:33:52;;;;;;;2.03;1.92;;;33.90;1.00;;;;;;5111495;28;20393;-59
2022/08/19 12:36:18;;;;;;;2.92;1.88;;;34.50;1.00;;;;;;5109021;28;20119;-60
2022/08/19 12:38:44;;;;;;;2.35;1.80;;;36.00;1.00;;;;;;5105837;28;20437;-60
2022/08/19 12:41:12;;;;;;;2.47;2.25;;;34.80;1.00;;;;;;5110718;28;20435;-59
2022/08/19 12:43:38;;;;;;;2.72;2.53;;;33.80;1.00;;;;;;5092396;28;20031;-59
2022/08/19 12:46:05;;;;;;;2.55;2.35;;;34.10;1.00;;;;;;5112387;28;20031;-60
2022/08/19 12:48:34;;;;;;;3.38;2.42;;;34.20;1.00;;;;;;5110995;28;20023;-61
2022/08/19 12:51:05;;;;;;;2.40;2.30;;;34.30;1.00;;;;;;5112089;28;20042;-61
2022/08/19 12:53:30;;;;;;;2.00;1.88;;;34.10;1.00;;;;;;5106769;28;20452;-60
2022/08/19 12:55:57;;;;;;;2.60;2.40;;;36.30;1.00;;;;;;5112090;28;20035;-61
2022/08/19 12:58:23;;;;;;;2.67;2.35;;;37.90;1.00;;;;;;5111079;28;20114;-60
2022/08/19 13:00:49;;;;;;;2.58;2.47;;;40.10;1.00;;;;;;5111364;28;20422;-61
2022/08/19 13:03:15;;;;;;;2.78;2.67;;;40.60;1.00;;;;;;5111424;28;20035;-61
2022/08/19 13:05:41;;;;;;;2.60;2.50;;;40.80;1.00;;;;;;5111841;28;20443;-59
2022/08/19 13:08:07;;;;;;;2.80;2.60;;;42.20;1.00;;;;;;5111112;28;20476;-58
2022/08/19 13:10:35;;;;;;;2.90;2.63;;;42.10;1.00;;;;;;5111802;28;20024;-59
2022/08/19 13:13:06;;;;;;;2.78;2.58;;;42.90;1.00;;;;;;5109863;28;20027;-59
2022/08/19 13:15:40;;;;;;;2.97;2.70;;;43.20;1.00;;;;;;5112023;28;20096;-59
2022/08/19 13:18:08;;;;;;;3.33;3.13;;;43.40;1.00;;;;;;5107885;28;20317;-59
2022/08/19 13:20:36;;;;;;;3.45;3.25;;;43.10;1.00;;;;;;5111073;28;20096;-59
2022/08/19 13:23:02;;;;;;;3.10;2.90;;;44.00;1.00;;;;;;5092588;28;20036;-59
2022/08/19 13:25:29;;;;;;;3.45;3.17;;;44.30;1.00;;;;;;5111054;28;20442;-59
2022/08/19 13:27:55;;;;;;;3.45;2.83;;;45.60;1.00;;;;;;5079959;28;20185;-59
2022/08/19 13:33:15;;;;;;;3.75;3.35;;;41.20;1.00;;;;;;5103687;28;20086;-61